createdAt,value
2018-07-23T00:00:32.725Z,101235.52
2018-07-23T00:01:38.148Z,101234.13
2018-07-23T00:02:43.594Z,101236.24
2018-07-23T00:03:49.175Z,101231.98
2018-07-23T00:04:54.770Z,101240.63
2018-07-23T00:06:00.192Z,101239.14
2018-07-23T00:07:05.983Z,101233.92
2018-07-23T00:08:11.356Z,101236.14
2018-07-23T00:09:16.925Z,101235.31
2018-07-23T00:10:22.423Z,101236.53
2018-07-23T00:11:27.902Z,101232.25
2018-07-23T00:12:33.318Z,101231.51
2018-07-23T00:13:38.497Z,101231.89
2018-07-23T00:14:43.885Z,101230.67
2018-07-23T00:15:49.348Z,101231.03
2018-07-23T00:16:54.890Z,101232.06
2018-07-23T00:18:00.036Z,101231.51
2018-07-23T00:19:05.440Z,101231.03
2018-07-23T00:20:11.308Z,101230.39
2018-07-23T00:21:16.891Z,101228.08
2018-07-23T00:22:22.360Z,101224.09
2018-07-23T00:23:27.789Z,101227.13
2018-07-23T00:24:33.445Z,101226.22
2018-07-23T00:25:38.911Z,101231.70
2018-07-23T00:26:44.072Z,101226.87
2018-07-23T00:27:49.462Z,101223.87
2018-07-23T00:28:54.865Z,101227.79
2018-07-23T00:30:00.327Z,101224.17
2018-07-23T00:31:05.929Z,101227.88
2018-07-23T00:32:11.368Z,101222.66
2018-07-23T00:33:17.240Z,101223.80
2018-07-23T00:34:22.818Z,101227.70
2018-07-23T00:35:28.356Z,101227.70
2018-07-23T00:36:33.775Z,101227.14
2018-07-23T00:37:39.240Z,101229.95
2018-07-23T00:38:44.737Z,101233.48
2018-07-23T00:39:50.336Z,101229.84
2018-07-23T00:40:55.816Z,101225.00
2018-07-23T00:42:01.291Z,101234.04
2018-07-23T00:43:06.800Z,101236.17
2018-07-23T00:44:12.671Z,101232.82
2018-07-23T00:45:18.273Z,101228.83
2018-07-23T00:46:23.829Z,101231.98
2018-07-23T00:47:29.289Z,101223.95
2018-07-23T00:48:34.771Z,101226.48
2018-07-23T00:49:40.222Z,101225.26
2018-07-23T00:50:45.661Z,101226.30
2018-07-23T00:51:51.028Z,101231.89
2018-07-23T00:52:56.380Z,101235.15
2018-07-23T00:54:01.882Z,101228.33
2018-07-23T00:55:07.428Z,101229.45
2018-07-23T00:56:12.929Z,101231.14
2018-07-23T00:57:18.401Z,101227.31
2018-07-23T00:58:23.884Z,101231.56
2018-07-23T00:59:29.402Z,101224.94
2018-07-23T01:00:34.897Z,101225.89
2018-07-23T01:01:40.383Z,101223.64
2018-07-23T01:02:45.894Z,101223.28
2018-07-23T01:03:51.060Z,101223.06
2018-07-23T01:04:56.581Z,101222.89
2018-07-23T01:06:02.041Z,101225.88
2018-07-23T01:07:07.769Z,101224.66
2018-07-23T01:08:13.188Z,101225.85
2018-07-23T01:09:18.377Z,101223.39
2018-07-23T01:10:23.808Z,101227.63
2018-07-23T01:11:29.272Z,101226.57
2018-07-23T01:12:35.599Z,101225.43
2018-07-23T01:13:41.056Z,101228.67
2018-07-23T01:14:46.468Z,101229.97
2018-07-23T01:15:51.905Z,101227.77
2018-07-23T01:16:57.351Z,101221.41
2018-07-23T01:18:02.804Z,101228.88
2018-07-23T01:19:08.231Z,101225.09
2018-07-23T01:20:13.733Z,101221.35
2018-07-23T01:21:18.987Z,101224.81
2018-07-23T01:22:25.712Z,101221.98
2018-07-23T01:23:31.223Z,101218.52
2018-07-23T01:24:36.846Z,101221.23
2018-07-23T01:25:42.557Z,101210.04
2018-07-23T01:26:48.017Z,101221.98
2018-07-23T01:27:53.692Z,101221.34
2018-07-23T01:28:59.202Z,101219.61
2018-07-23T01:30:05.599Z,101216.56
2018-07-23T01:31:11.162Z,101213.98
2018-07-23T01:32:16.581Z,101219.19
2018-07-23T01:33:22.084Z,101215.31
2018-07-23T01:34:27.499Z,101212.73
2018-07-23T01:35:33.008Z,101217.20
2018-07-23T01:36:38.469Z,101221.49
2018-07-23T01:37:43.929Z,101216.58
2018-07-23T01:38:49.356Z,101216.37
2018-07-23T01:39:54.816Z,101217.95
2018-07-23T01:41:00.380Z,101214.45
2018-07-23T01:42:06.317Z,101218.74
2018-07-23T01:43:11.777Z,101221.23
2018-07-23T01:44:17.169Z,101218.56
2018-07-23T01:45:22.767Z,101217.19
2018-07-23T01:46:28.189Z,101223.39
2018-07-23T01:47:33.817Z,101222.09
2018-07-23T01:48:39.284Z,101224.70
2018-07-23T01:49:44.746Z,101218.50
2018-07-23T01:50:50.169Z,101221.34
2018-07-23T01:51:55.634Z,101216.84
2018-07-23T01:53:01.268Z,101219.98
2018-07-23T01:54:06.820Z,101213.92
2018-07-23T01:55:12.436Z,101216.02
2018-07-23T01:56:17.908Z,101224.98
2018-07-23T01:57:23.353Z,101218.72
2018-07-23T01:58:29.213Z,101219.73
2018-07-23T01:59:34.667Z,101212.27
2018-07-23T02:00:40.190Z,101215.22
2018-07-23T02:01:45.612Z,101219.84
2018-07-23T02:02:51.279Z,101217.03
2018-07-23T02:03:56.724Z,101219.55
2018-07-23T02:05:02.184Z,101224.52
2018-07-23T02:06:07.928Z,101229.46
2018-07-23T02:07:13.417Z,101224.59
2018-07-23T02:08:18.955Z,101222.75
2018-07-23T02:09:24.357Z,101227.88
2018-07-23T02:10:29.764Z,101221.99
2018-07-23T02:11:35.242Z,101224.59
2018-07-23T02:12:40.738Z,101222.13
2018-07-23T02:13:46.138Z,101219.31
2018-07-23T02:14:51.557Z,101220.14
2018-07-23T02:15:57.097Z,101221.08
2018-07-23T02:17:02.513Z,101223.14
2018-07-23T02:18:08.433Z,101218.95
2018-07-23T02:19:13.824Z,101221.62
2018-07-23T02:20:19.263Z,101227.02
2018-07-23T02:21:24.721Z,101230.37
2018-07-23T02:22:30.287Z,101228.03
2018-07-23T02:23:35.764Z,101233.58
2018-07-23T02:24:41.144Z,101239.03
2018-07-23T02:25:46.601Z,101234.52
2018-07-23T02:26:52.196Z,101237.64
2018-07-23T02:27:57.608Z,101235.12
2018-07-23T02:29:03.251Z,101231.83
2018-07-23T02:30:08.695Z,101234.20
2018-07-23T02:31:14.097Z,101236.54
2018-07-23T02:32:19.657Z,101237.84
2018-07-23T02:33:25.156Z,101238.46
2018-07-23T02:34:30.602Z,101237.70
2018-07-23T02:35:36.367Z,101239.30
2018-07-23T02:36:41.830Z,101233.31
2018-07-23T02:37:47.701Z,101232.28
2018-07-23T02:38:53.216Z,101231.13
2018-07-23T02:39:58.660Z,101235.08
2018-07-23T02:41:04.282Z,101236.91
2018-07-23T02:42:09.740Z,101233.85
2018-07-23T02:43:15.207Z,101235.55
2018-07-23T02:44:20.718Z,101236.98
2018-07-23T02:45:26.243Z,101235.92
2018-07-23T02:46:31.664Z,101237.26
2018-07-23T02:47:37.102Z,101228.48
2018-07-23T02:48:42.616Z,101237.16
2018-07-23T02:49:48.104Z,101237.16
2018-07-23T02:50:53.621Z,101237.00
2018-07-23T02:51:59.084Z,101239.89
2018-07-23T02:53:04.501Z,101242.35
2018-07-23T02:54:09.933Z,101237.46
2018-07-23T02:55:15.342Z,101241.95
2018-07-23T02:56:20.906Z,101238.76
2018-07-23T02:57:26.362Z,101235.94
2018-07-23T02:58:31.745Z,101236.47
2018-07-23T02:59:37.256Z,101236.26
2018-07-23T03:00:42.676Z,101235.27
2018-07-23T03:01:48.178Z,101239.63
2018-07-23T03:02:53.694Z,101241.52
2018-07-23T03:03:59.257Z,101244.94
2018-07-23T03:05:04.880Z,101244.72
2018-07-23T03:06:10.342Z,101245.74
2018-07-23T03:07:15.836Z,101246.97
2018-07-23T03:08:21.803Z,101243.15
2018-07-23T03:09:27.274Z,101240.22
2018-07-23T03:10:32.805Z,101249.77
2018-07-23T03:11:38.263Z,101240.82
2018-07-23T03:12:43.882Z,101244.23
2018-07-23T03:13:49.504Z,101245.73
2018-07-23T03:15:01.729Z,101244.09
2018-07-23T03:16:07.215Z,101243.22
2018-07-23T03:17:12.912Z,101243.45
2018-07-23T03:18:18.348Z,101235.62
2018-07-23T03:19:23.856Z,101239.45
2018-07-23T03:20:29.324Z,101242.45
2018-07-23T03:21:34.774Z,101247.09
2018-07-23T03:22:40.288Z,101240.86
2018-07-23T03:23:45.869Z,101241.39
2018-07-23T03:24:51.428Z,101236.57
2018-07-23T03:25:56.877Z,101245.70
2018-07-23T03:27:02.329Z,101249.93
2018-07-23T03:28:07.792Z,101248.70
2018-07-23T03:29:13.314Z,101254.23
2018-07-23T03:30:18.853Z,101255.88
2018-07-23T03:31:24.305Z,101259.42
2018-07-23T03:32:29.752Z,101262.26
2018-07-23T03:33:35.264Z,101257.60
2018-07-23T03:34:40.737Z,101265.38
2018-07-23T03:35:46.346Z,101257.88
2018-07-23T03:36:51.820Z,101260.94
2018-07-23T03:37:57.268Z,101261.43
2018-07-23T03:39:03.075Z,101259.83
2018-07-23T03:40:08.492Z,101260.30
2018-07-23T03:41:13.900Z,101264.77
2018-07-23T03:42:19.346Z,101259.89
2018-07-23T03:43:24.811Z,101266.31
2018-07-23T03:44:30.293Z,101267.14
2018-07-23T03:45:35.757Z,101265.02
2018-07-23T03:46:41.269Z,101270.87
2018-07-23T03:47:46.672Z,101267.34
2018-07-23T03:48:52.324Z,101270.16
2018-07-23T03:49:57.781Z,101271.30
2018-07-23T03:51:03.200Z,101271.64
2018-07-23T03:52:08.629Z,101269.77
2018-07-23T03:53:14.104Z,101274.36
2018-07-23T03:54:19.588Z,101273.37
2018-07-23T03:55:25.078Z,101270.72
2018-07-23T03:56:30.559Z,101278.13
2018-07-23T03:57:35.735Z,101279.36
2018-07-23T03:58:41.045Z,101273.19
2018-07-23T03:59:46.572Z,101276.23
2018-07-23T04:00:52.074Z,101275.84
2018-07-23T04:01:57.515Z,101281.66
2018-07-23T04:03:03.017Z,101281.66
2018-07-23T04:04:08.588Z,101275.84
2018-07-23T04:05:14.048Z,101280.25
2018-07-23T04:06:19.874Z,101276.23
2018-07-23T04:07:25.313Z,101279.13
2018-07-23T04:08:31.053Z,101284.02
2018-07-23T04:09:36.616Z,101275.84
2018-07-23T04:10:42.213Z,101278.37
2018-07-23T04:11:47.606Z,101275.84
2018-07-23T04:12:53.252Z,101278.83
2018-07-23T04:13:58.754Z,101281.48
2018-07-23T04:15:04.338Z,101277.97
2018-07-23T04:16:09.808Z,101278.55
2018-07-23T04:17:15.301Z,101282.84
2018-07-23T04:18:20.936Z,101286.27
2018-07-23T04:19:26.440Z,101288.70
2018-07-23T04:20:33.795Z,101288.22
2018-07-23T04:21:39.246Z,101289.10
2018-07-23T04:22:44.802Z,101277.32
2018-07-23T04:23:50.400Z,101283.68
2018-07-23T04:24:55.792Z,101284.31
2018-07-23T04:26:01.264Z,101284.66
2018-07-23T04:27:07.580Z,101282.16
2018-07-23T04:28:13.211Z,101282.13
2018-07-23T04:29:18.665Z,101281.15
2018-07-23T04:30:24.488Z,101280.70
2018-07-23T04:31:29.945Z,101289.27
2018-07-23T04:32:35.405Z,101284.53
2018-07-23T04:33:40.839Z,101289.73
2018-07-23T04:34:46.281Z,101289.71
2018-07-23T04:35:51.735Z,101289.61
2018-07-23T04:36:57.234Z,101286.59
2018-07-23T04:38:02.775Z,101290.45
2018-07-23T04:39:09.085Z,101295.83
2018-07-23T04:40:14.702Z,101300.77
2018-07-23T04:41:20.204Z,101297.16
2018-07-23T04:42:25.745Z,101301.73
2018-07-23T04:43:31.207Z,101301.57
2018-07-23T04:44:36.761Z,101307.20
2018-07-23T04:45:42.225Z,101305.84
2018-07-23T04:46:47.635Z,101296.60
2018-07-23T04:47:53.092Z,101299.17
2018-07-23T04:49:01.502Z,101298.78
2018-07-23T04:50:07.300Z,101304.48
2018-07-23T04:51:12.720Z,101303.56
2018-07-23T04:52:18.329Z,101306.45
2018-07-23T04:53:23.718Z,101305.23
2018-07-23T04:54:29.230Z,101305.47
2018-07-23T04:55:34.661Z,101303.42
2018-07-23T04:56:40.129Z,101304.65
2018-07-23T04:57:45.614Z,101307.09
2018-07-23T04:58:51.196Z,101311.20
2018-07-23T04:59:56.685Z,101309.58
2018-07-23T05:01:02.153Z,101312.55
2018-07-23T05:02:07.880Z,101316.84
2018-07-23T05:03:13.357Z,101316.16
2018-07-23T05:04:18.749Z,101318.65
2018-07-23T05:05:24.417Z,101318.68
2018-07-23T05:06:29.841Z,101318.88
2018-07-23T05:07:35.289Z,101319.99
2018-07-23T05:08:41.354Z,101321.48
2018-07-23T05:09:46.788Z,101324.11
2018-07-23T05:10:52.353Z,101324.05
2018-07-23T05:11:57.873Z,101323.63
2018-07-23T05:13:03.652Z,101323.89
2018-07-23T05:14:09.878Z,101325.95
2018-07-23T05:15:15.352Z,101321.77
2018-07-23T05:16:21.060Z,101322.67
2018-07-23T05:17:26.487Z,101325.75
2018-07-23T05:18:31.576Z,101324.80
2018-07-23T05:19:37.008Z,101325.67
2018-07-23T05:20:42.428Z,101325.13
2018-07-23T05:21:47.932Z,101321.70
2018-07-23T05:22:53.381Z,101320.39
2018-07-23T05:23:58.945Z,101320.53
2018-07-23T05:25:04.562Z,101315.48
2018-07-23T05:26:10.172Z,101318.48
2018-07-23T05:27:15.718Z,101323.43
2018-07-23T05:28:21.227Z,101318.72
2018-07-23T05:29:26.929Z,101322.80
2018-07-23T05:30:32.417Z,101325.06
2018-07-23T05:31:37.871Z,101320.80
2018-07-23T05:32:43.492Z,101330.05
2018-07-23T05:33:49.011Z,101321.02
2018-07-23T05:34:54.499Z,101323.16
2018-07-23T05:36:00.053Z,101324.09
2018-07-23T05:37:05.749Z,101324.92
2018-07-23T05:38:11.465Z,101328.06
2018-07-23T05:39:16.931Z,101333.27
2018-07-23T05:40:22.514Z,101331.89
2018-07-23T05:41:27.927Z,101326.52
2018-07-23T05:42:33.368Z,101331.48
2018-07-23T05:43:38.992Z,101330.80
2018-07-23T05:44:44.863Z,101331.77
2018-07-23T05:45:50.265Z,101329.30
2018-07-23T05:46:55.727Z,101338.58
2018-07-23T05:48:01.163Z,101333.00
2018-07-23T05:49:06.741Z,101331.72
2018-07-23T05:50:12.240Z,101336.55
2018-07-23T05:51:17.796Z,101340.86
2018-07-23T05:52:24.549Z,101341.13
2018-07-23T05:53:30.105Z,101336.98
2018-07-23T05:54:35.527Z,101340.11
2018-07-23T05:55:41.036Z,101341.17
2018-07-23T05:56:46.501Z,101341.46
2018-07-23T05:57:52.009Z,101337.77
2018-07-23T05:58:57.474Z,101339.66
2018-07-23T06:00:03.011Z,101336.44
2018-07-23T06:01:08.502Z,101341.02
2018-07-23T06:02:14.410Z,101338.41
2018-07-23T06:03:19.825Z,101337.27
2018-07-23T06:04:25.320Z,101334.45
2018-07-23T06:05:30.733Z,101336.36
2018-07-23T06:06:36.544Z,101331.83
2018-07-23T06:07:41.936Z,101338.80
2018-07-23T06:08:47.348Z,101340.23
2018-07-23T06:09:52.844Z,101335.22
2018-07-23T06:10:58.489Z,101331.91
2018-07-23T06:12:03.961Z,101340.00
2018-07-23T06:13:09.531Z,101333.77
2018-07-23T06:14:15.001Z,101336.77
2018-07-23T06:15:20.496Z,101336.06
2018-07-23T06:16:25.917Z,101337.16
2018-07-23T06:17:31.446Z,101338.27
2018-07-23T06:18:36.916Z,101338.18
2018-07-23T06:19:42.373Z,101340.91
2018-07-23T06:20:47.873Z,101338.25
2018-07-23T06:21:53.709Z,101335.20
2018-07-23T06:22:59.140Z,101338.31
2018-07-23T06:24:04.769Z,101332.98
2018-07-23T06:25:10.284Z,101340.92
2018-07-23T06:26:15.789Z,101339.17
2018-07-23T06:27:21.348Z,101334.80
2018-07-23T06:28:26.809Z,101332.19
2018-07-23T06:29:32.261Z,101336.17
2018-07-23T06:30:37.814Z,101340.59
2018-07-23T06:31:43.267Z,101341.80
2018-07-23T06:32:48.804Z,101343.80
2018-07-23T06:33:54.316Z,101345.41
2018-07-23T06:34:59.816Z,101345.30
2018-07-23T06:36:05.324Z,101339.44
2018-07-23T06:37:10.769Z,101338.33
2018-07-23T06:38:16.312Z,101336.86
2018-07-23T06:39:21.928Z,101341.95
2018-07-23T06:40:27.419Z,101336.30
2018-07-23T06:41:32.929Z,101336.38
2018-07-23T06:42:38.373Z,101337.53
2018-07-23T06:43:44.009Z,101337.75
2018-07-23T06:44:49.519Z,101335.33
2018-07-23T06:45:55.041Z,101336.72
2018-07-23T06:47:00.528Z,101338.87
2018-07-23T06:48:06.110Z,101338.31
2018-07-23T06:49:11.573Z,101335.84
2018-07-23T06:50:17.044Z,101338.80
2018-07-23T06:51:22.547Z,101338.53
2018-07-23T06:52:28.040Z,101344.30
2018-07-23T06:53:33.485Z,101338.34
2018-07-23T06:54:39.001Z,101337.78
2018-07-23T06:55:44.416Z,101340.48
2018-07-23T06:56:49.921Z,101343.66
2018-07-23T06:57:55.545Z,101347.37
2018-07-23T06:59:01.064Z,101345.33
2018-07-23T07:00:07.308Z,101341.33
2018-07-23T07:01:12.773Z,101344.42
2018-07-23T07:02:18.332Z,101339.95
2018-07-23T07:03:23.812Z,101346.27
2018-07-23T07:04:29.570Z,101349.26
2018-07-23T07:05:35.046Z,101353.83
2018-07-23T07:06:40.732Z,101350.00
2018-07-23T07:07:46.177Z,101352.16
2018-07-23T07:08:51.789Z,101348.98
2018-07-23T07:09:57.193Z,101359.64
2018-07-23T07:11:02.675Z,101349.09
2018-07-23T07:12:07.791Z,101347.30
2018-07-23T07:13:13.121Z,101353.35
2018-07-23T07:14:18.636Z,101353.00
2018-07-23T07:15:24.208Z,101348.95
2018-07-23T07:16:29.652Z,101352.78
2018-07-23T07:17:35.144Z,101345.89
2018-07-23T07:18:40.597Z,101348.74
2018-07-23T07:19:46.497Z,101352.73
2018-07-23T07:20:51.979Z,101348.23
2018-07-23T07:21:57.413Z,101347.38
2018-07-23T07:23:02.837Z,101342.80
2018-07-23T07:24:08.346Z,101349.21
2018-07-23T07:25:13.812Z,101339.17
2018-07-23T07:26:19.208Z,101348.09
2018-07-23T07:27:25.100Z,101350.68
2018-07-23T07:28:30.619Z,101348.76
2018-07-23T07:29:36.036Z,101352.07
2018-07-23T07:30:41.868Z,101349.80
2018-07-23T07:31:47.276Z,101349.02
2018-07-23T07:32:52.790Z,101351.16
2018-07-23T07:33:58.180Z,101349.80
2018-07-23T07:35:03.618Z,101348.58
2018-07-23T07:36:09.051Z,101345.81
2018-07-23T07:37:14.545Z,101350.09
2018-07-23T07:38:20.057Z,101346.89
2018-07-23T07:39:25.491Z,101343.34
2018-07-23T07:40:30.961Z,101346.45
2018-07-23T07:41:36.461Z,101351.10
2018-07-23T07:42:41.904Z,101345.97
2018-07-23T07:43:47.320Z,101345.18
2018-07-23T07:44:52.972Z,101339.09
2018-07-23T07:45:58.436Z,101342.48
2018-07-23T07:47:04.150Z,101341.97
2018-07-23T07:48:09.656Z,101341.87
2018-07-23T07:49:15.289Z,101346.63
2018-07-23T07:50:20.816Z,101338.20
2018-07-23T07:51:26.393Z,101344.31
2018-07-23T07:52:31.911Z,101345.63
2018-07-23T07:53:37.636Z,101346.01
2018-07-23T07:54:43.232Z,101341.76
2018-07-23T07:55:48.676Z,101339.73
2018-07-23T07:56:54.473Z,101336.52
2018-07-23T07:57:59.948Z,101341.89
2018-07-23T07:59:05.386Z,101342.28
2018-07-23T08:00:11.029Z,101338.59
2018-07-23T08:01:16.516Z,101340.77
2018-07-23T08:02:22.038Z,101351.09
2018-07-23T08:03:27.536Z,101348.14
2018-07-23T08:04:32.984Z,101345.94
2018-07-23T08:05:38.436Z,101347.53
2018-07-23T08:06:43.944Z,101351.50
2018-07-23T08:07:49.445Z,101342.00
2018-07-23T08:08:54.936Z,101349.93
2018-07-23T08:10:00.368Z,101347.07
2018-07-23T08:11:05.824Z,101351.76
2018-07-23T08:12:11.270Z,101348.00
2018-07-23T08:13:16.897Z,101346.69
2018-07-23T08:14:22.435Z,101351.17
2018-07-23T08:15:28.055Z,101349.34
2018-07-23T08:16:33.537Z,101345.66
2018-07-23T08:17:38.980Z,101347.76
2018-07-23T08:18:44.850Z,101348.59
2018-07-23T08:19:50.352Z,101348.36
2018-07-23T08:20:55.689Z,101350.58
2018-07-23T08:22:01.138Z,101345.93
2018-07-23T08:23:06.700Z,101346.93
2018-07-23T08:24:12.404Z,101347.66
2018-07-23T08:25:18.252Z,101347.20
2018-07-23T08:26:23.890Z,101342.83
2018-07-23T08:27:29.360Z,101341.06
2018-07-23T08:28:34.772Z,101352.03
2018-07-23T08:29:40.512Z,101349.38
2018-07-23T08:30:46.116Z,101350.17
2018-07-23T08:31:51.642Z,101355.20
2018-07-23T08:32:57.212Z,101357.59
2018-07-23T08:34:02.821Z,101349.75
2018-07-23T08:35:08.314Z,101355.27
2018-07-23T08:36:13.800Z,101347.69
2018-07-23T08:37:19.353Z,101350.00
2018-07-23T08:38:24.856Z,101350.41
2018-07-23T08:39:30.354Z,101348.33
2018-07-23T08:40:35.781Z,101348.73
2018-07-23T08:41:41.285Z,101348.12
2018-07-23T08:42:46.729Z,101351.59
2018-07-23T08:43:52.241Z,101349.16
2018-07-23T08:44:57.755Z,101351.52
2018-07-23T08:46:02.930Z,101357.86
2018-07-23T08:47:08.462Z,101356.67
2018-07-23T08:48:14.019Z,101361.73
2018-07-23T08:49:19.586Z,101357.52
2018-07-23T08:50:25.038Z,101360.16
2018-07-23T08:51:30.505Z,101361.66
2018-07-23T08:52:36.042Z,101359.14
2018-07-23T08:53:41.969Z,101358.13
2018-07-23T08:54:47.530Z,101361.68
2018-07-23T08:55:53.008Z,101352.74
2018-07-23T08:56:58.483Z,101356.98
2018-07-23T08:58:04.076Z,101360.00
2018-07-23T08:59:09.539Z,101362.63
2018-07-23T09:00:14.965Z,101359.34
2018-07-23T09:01:20.600Z,101365.45
2018-07-23T09:02:26.123Z,101363.09
2018-07-23T09:03:31.545Z,101364.05
2018-07-23T09:04:37.022Z,101365.63
2018-07-23T09:05:42.517Z,101362.73
2018-07-23T09:06:48.105Z,101362.16
2018-07-23T09:07:53.545Z,101361.34
2018-07-23T09:08:59.028Z,101363.76
2018-07-23T09:10:04.520Z,101364.52
2018-07-23T09:11:09.960Z,101364.41
2018-07-23T09:12:15.430Z,101367.30
2018-07-23T09:13:21.116Z,101365.99
2018-07-23T09:14:26.547Z,101365.77
2018-07-23T09:15:32.008Z,101364.45
2018-07-23T09:16:37.583Z,101366.60
2018-07-23T09:17:43.031Z,101364.46
2018-07-23T09:18:48.616Z,101370.20
2018-07-23T09:19:54.112Z,101369.23
2018-07-23T09:20:59.777Z,101366.86
2018-07-23T09:22:05.535Z,101359.92
2018-07-23T09:23:11.071Z,101364.09
2018-07-23T09:24:16.914Z,101367.31
2018-07-23T09:25:22.406Z,101368.06
2018-07-23T09:26:27.876Z,101369.60
2018-07-23T09:27:33.322Z,101371.88
2018-07-23T09:28:38.748Z,101375.57
2018-07-23T09:29:44.236Z,101375.83
2018-07-23T09:30:50.638Z,101374.53
2018-07-23T09:31:56.147Z,101371.08
2018-07-23T09:33:01.649Z,101365.55
2018-07-23T09:34:07.216Z,101361.95
2018-07-23T09:35:12.609Z,101367.46
2018-07-23T09:36:18.121Z,101361.12
2018-07-23T09:37:24.396Z,101361.11
2018-07-23T09:38:30.184Z,101369.88
2018-07-23T09:39:36.036Z,101362.33
2018-07-23T09:40:41.501Z,101361.03
2018-07-23T09:41:46.984Z,101353.36
2018-07-23T09:42:52.431Z,101354.20
2018-07-23T09:43:58.301Z,101353.34
2018-07-23T09:45:03.804Z,101351.64
2018-07-23T09:46:09.264Z,101354.52
2018-07-23T09:47:14.681Z,101356.89
2018-07-23T09:48:20.116Z,101355.16
2018-07-23T09:49:25.584Z,101358.72
2018-07-23T09:50:31.079Z,101354.42
2018-07-23T09:51:36.623Z,101361.68
2018-07-23T09:52:42.135Z,101354.39
2018-07-23T09:53:47.577Z,101352.89
2018-07-23T09:54:53.397Z,101355.69
2018-07-23T09:55:58.894Z,101354.69
2018-07-23T09:57:04.508Z,101354.45
2018-07-23T09:58:09.946Z,101357.42
2018-07-23T09:59:15.376Z,101355.71
2018-07-23T10:00:26.016Z,101355.34
2018-07-23T10:01:31.892Z,101350.05
2018-07-23T10:02:37.336Z,101351.59
2018-07-23T10:03:42.958Z,101349.66
2018-07-23T10:04:48.313Z,101348.64
2018-07-23T10:05:53.717Z,101348.89
2018-07-23T10:06:59.216Z,101355.64
2018-07-23T10:08:04.776Z,101353.17
2018-07-23T10:09:11.648Z,101353.13
2018-07-23T10:10:17.289Z,101351.98
2018-07-23T10:11:22.953Z,101354.29
2018-07-23T10:12:28.501Z,101349.64
2018-07-23T10:13:33.920Z,101344.04
2018-07-23T10:14:39.429Z,101351.41
2018-07-23T10:15:45.421Z,101347.09
2018-07-23T10:16:50.913Z,101346.83
2018-07-23T10:17:56.376Z,101348.03
2018-07-23T10:19:01.934Z,101349.34
2018-07-23T10:20:07.689Z,101348.06
2018-07-23T10:21:13.128Z,101345.59
2018-07-23T10:22:18.610Z,101346.08
2018-07-23T10:23:24.052Z,101347.73
2018-07-23T10:24:29.865Z,101342.63
2018-07-23T10:25:36.205Z,101340.13
2018-07-23T10:26:41.573Z,101343.58
2018-07-23T10:27:46.992Z,101342.81
2018-07-23T10:28:52.163Z,101347.17
2018-07-23T10:29:57.525Z,101351.61
2018-07-23T10:31:03.084Z,101348.50
2018-07-23T10:32:08.552Z,101349.70
2018-07-23T10:33:13.980Z,101353.76
2018-07-23T10:34:19.532Z,101350.69
2018-07-23T10:35:25.057Z,101349.66
2018-07-23T10:36:30.535Z,101353.28
2018-07-23T10:37:35.960Z,101350.95
2018-07-23T10:38:41.163Z,101349.50
2018-07-23T10:39:46.534Z,101345.85
2018-07-23T10:40:52.100Z,101349.42
2018-07-23T10:41:57.600Z,101352.16
2018-07-23T10:43:03.092Z,101350.22
2018-07-23T10:44:08.713Z,101349.20
2018-07-23T10:45:14.237Z,101354.41
2018-07-23T10:46:19.850Z,101347.77
2018-07-23T10:47:25.372Z,101341.41
2018-07-23T10:48:30.797Z,101337.20
2018-07-23T10:49:36.263Z,101344.00
2018-07-23T10:50:41.688Z,101339.29
2018-07-23T10:51:47.121Z,101336.71
2018-07-23T10:52:52.597Z,101342.31
2018-07-23T10:53:58.048Z,101340.11
2018-07-23T10:55:03.533Z,101340.61
2018-07-23T10:56:09.005Z,101338.28
2018-07-23T10:57:14.854Z,101337.33
2018-07-23T10:58:20.409Z,101337.95
2018-07-23T10:59:25.882Z,101341.48
2018-07-23T11:00:31.308Z,101336.71
2018-07-23T11:01:36.778Z,101334.58
2018-07-23T11:02:42.241Z,101331.25
2018-07-23T11:03:47.661Z,101336.41
2018-07-23T11:04:53.157Z,101335.66
2018-07-23T11:05:58.617Z,101335.52
2018-07-23T11:07:04.120Z,101337.05
2018-07-23T11:08:09.633Z,101334.51
2018-07-23T11:09:15.070Z,101340.88
2018-07-23T11:10:21.108Z,101339.20
2018-07-23T11:11:26.581Z,101343.06
2018-07-23T11:12:32.008Z,101345.05
2018-07-23T11:13:37.456Z,101343.41
2018-07-23T11:14:42.870Z,101344.03
2018-07-23T11:15:48.288Z,101344.28
2018-07-23T11:16:53.948Z,101345.55
2018-07-23T11:17:59.352Z,101345.50
2018-07-23T11:19:04.861Z,101347.61
2018-07-23T11:20:12.663Z,101337.95
2018-07-23T11:21:18.242Z,101344.64
2018-07-23T11:22:23.714Z,101347.27
2018-07-23T11:23:29.352Z,101345.09
2018-07-23T11:24:34.875Z,101352.56
2018-07-23T11:25:40.670Z,101344.45
2018-07-23T11:26:45.846Z,101340.62
2018-07-23T11:27:51.418Z,101343.32
2018-07-23T11:28:56.878Z,101348.17
2018-07-23T11:30:02.388Z,101338.73
2018-07-23T11:31:08.625Z,101345.63
2018-07-23T11:32:14.109Z,101347.70
2018-07-23T11:33:19.644Z,101339.30
2018-07-23T11:34:25.086Z,101342.50
2018-07-23T11:35:30.717Z,101346.22
2018-07-23T11:36:36.211Z,101347.48
2018-07-23T11:37:41.688Z,101342.53
2018-07-23T11:38:47.221Z,101341.38
2018-07-23T11:39:52.638Z,101339.63
2018-07-23T11:40:58.210Z,101338.44
2018-07-23T11:42:03.697Z,101339.43
2018-07-23T11:43:09.554Z,101337.09
2018-07-23T11:44:14.982Z,101334.02
2018-07-23T11:45:21.150Z,101340.44
2018-07-23T11:46:26.532Z,101335.97
2018-07-23T11:47:31.951Z,101336.34
2018-07-23T11:48:37.465Z,101332.25
2018-07-23T11:49:42.972Z,101330.55
2018-07-23T11:50:48.563Z,101332.20
2018-07-23T11:51:54.017Z,101335.27
2018-07-23T11:52:59.480Z,101334.00
2018-07-23T11:54:05.041Z,101333.66
2018-07-23T11:55:10.489Z,101330.31
2018-07-23T11:56:15.950Z,101335.55
2018-07-23T11:57:21.388Z,101331.56
2018-07-23T11:58:26.881Z,101330.00
2018-07-23T11:59:32.447Z,101329.00
2018-07-23T12:00:37.960Z,101321.66
2018-07-23T12:01:43.365Z,101324.30
2018-07-23T12:02:48.909Z,101324.22
2018-07-23T12:03:54.645Z,101330.62
2018-07-23T12:05:00.210Z,101324.91
2018-07-23T12:06:05.928Z,101327.08
2018-07-23T12:07:11.356Z,101326.73
2018-07-23T12:08:16.747Z,101331.24
2018-07-23T12:09:22.220Z,101320.48
2018-07-23T12:10:27.740Z,101323.39
2018-07-23T12:11:33.203Z,101320.29
2018-07-23T12:12:38.637Z,101322.50
2018-07-23T12:13:44.160Z,101328.39
2018-07-23T12:14:49.648Z,101330.05
2018-07-23T12:15:55.331Z,101328.02
2018-07-23T12:17:00.728Z,101330.77
2018-07-23T12:18:07.054Z,101326.04
2018-07-23T12:19:12.467Z,101326.55
2018-07-23T12:20:18.056Z,101327.65
2018-07-23T12:21:23.552Z,101330.50
2018-07-23T12:22:29.480Z,101329.00
2018-07-23T12:23:34.900Z,101331.56
2018-07-23T12:24:40.350Z,101328.28
2018-07-23T12:25:45.830Z,101326.28
2018-07-23T12:26:51.296Z,101324.78
2018-07-23T12:27:56.716Z,101326.13